Terminal Aerodrome Forecast
Issued by NWS Wilmington, NC

Home | Current Version | Previous Version | Text Only | Print | Product List | Glossary On
Versions: 1 2 3 4 5 6 7 8 9 10 11 12 13
000
FTUS42 KILM 290500
TAFMYR
TAF
KMYR 290539Z 2906/3006 34005KT P6SM SCT035 BKN250
     FM290800 36006KT P6SM SCT035
     FM291400 03010KT P6SM SCT040
     FM292000 10010KT P6SM SCT045
      AMD LTD TO CLD VIS AND WIND TIL 291100=

USA.gov is the U.S. government's official web portal to all federal, state and local government web resources and services.